sensor_id;sensor_type;location;lat;lon;timestamp;temperature;humidity
37646;DHT22;23489;49.600;6.138;2023-09-19T00:00:23;15.20;99.90
37646;DHT22;23489;49.600;6.138;2023-09-19T00:02:56;15.10;99.90
37646;DHT22;23489;49.600;6.138;2023-09-19T00:05:23;15.10;99.90
37646;DHT22;23489;49.600;6.138;2023-09-19T00:07:50;15.10;99.90
37646;DHT22;23489;49.600;6.138;2023-09-19T00:10:16;15.10;99.90
37646;DHT22;23489;49.600;6.138;2023-09-19T00:12:44;15.10;99.90
37646;DHT22;23489;49.600;6.138;2023-09-19T00:15:10;15.10;99.90
37646;DHT22;23489;49.600;6.138;2023-09-19T00:17:36;15.00;99.90
37646;DHT22;23489;49.600;6.138;2023-09-19T00:20:03;15.00;99.90
37646;DHT22;23489;49.600;6.138;2023-09-19T00:22:32;15.00;99.90
37646;DHT22;23489;49.600;6.138;2023-09-19T00:24:58;15.00;99.90
37646;DHT22;23489;49.600;6.138;2023-09-19T00:27:23;15.00;99.90
37646;DHT22;23489;49.600;6.138;2023-09-19T00:29:48;15.00;99.90
37646;DHT22;23489;49.600;6.138;2023-09-19T00:32:14;14.90;99.90
37646;DHT22;23489;49.600;6.138;2023-09-19T00:34:40;14.90;99.90
37646;DHT22;23489;49.600;6.138;2023-09-19T00:37:07;14.90;99.90
37646;DHT22;23489;49.600;6.138;2023-09-19T00:39:33;14.90;99.90
37646;DHT22;23489;49.600;6.138;2023-09-19T00:41:59;14.90;99.90
37646;DHT22;23489;49.600;6.138;2023-09-19T00:44:30;14.80;99.90
37646;DHT22;23489;49.600;6.138;2023-09-19T00:46:55;14.80;99.90
37646;DHT22;23489;49.600;6.138;2023-09-19T00:49:21;14.80;99.90
37646;DHT22;23489;49.600;6.138;2023-09-19T00:51:48;14.80;99.90
37646;DHT22;23489;49.600;6.138;2023-09-19T00:54:14;14.80;99.90
37646;DHT22;23489;49.600;6.138;2023-09-19T00:56:44;14.70;99.90
37646;DHT22;23489;49.600;6.138;2023-09-19T00:59:10;14.70;99.90
37646;DHT22;23489;49.600;6.138;2023-09-19T01:01:35;14.70;99.90
37646;DHT22;23489;49.600;6.138;2023-09-19T01:04:05;14.70;99.90
37646;DHT22;23489;49.600;6.138;2023-09-19T01:06:31;14.60;99.90
37646;DHT22;23489;49.600;6.138;2023-09-19T01:08:57;14.60;99.90
37646;DHT22;23489;49.600;6.138;2023-09-19T01:11:31;14.60;99.90
37646;DHT22;23489;49.600;6.138;2023-09-19T01:14:09;14.60;99.90
37646;DHT22;23489;49.600;6.138;2023-09-19T01:16:44;14.60;99.90
37646;DHT22;23489;49.600;6.138;2023-09-19T01:24:16;14.70;99.90
37646;DHT22;23489;49.600;6.138;2023-09-19T01:32:03;14.80;99.90
37646;DHT22;23489;49.600;6.138;2023-09-19T01:37:12;14.80;99.90
37646;DHT22;23489;49.600;6.138;2023-09-19T01:39:38;14.80;99.90
37646;DHT22;23489;49.600;6.138;2023-09-19T01:47:26;14.80;99.90
37646;DHT22;23489;49.600;6.138;2023-09-19T01:49:55;14.80;99.90
37646;DHT22;23489;49.600;6.138;2023-09-19T01:52:23;14.70;99.90
37646;DHT22;23489;49.600;6.138;2023-09-19T01:54:52;14.70;99.90
37646;DHT22;23489;49.600;6.138;2023-09-19T01:59:45;14.60;99.90
37646;DHT22;23489;49.600;6.138;2023-09-19T02:02:13;14.60;99.90
37646;DHT22;23489;49.600;6.138;2023-09-19T02:04:40;14.60;99.90
37646;DHT22;23489;49.600;6.138;2023-09-19T02:07:05;14.60;99.90
37646;DHT22;23489;49.600;6.138;2023-09-19T02:09:31;14.60;99.90
37646;DHT22;23489;49.600;6.138;2023-09-19T02:11:56;14.60;99.90
37646;DHT22;23489;49.600;6.138;2023-09-19T02:14:22;14.60;99.90
37646;DHT22;23489;49.600;6.138;2023-09-19T02:16:47;14.70;99.90
37646;DHT22;23489;49.600;6.138;2023-09-19T02:19:15;14.60;99.90
37646;DHT22;23489;49.600;6.138;2023-09-19T02:21:40;14.70;99.90
37646;DHT22;23489;49.600;6.138;2023-09-19T02:24:06;14.70;99.90
37646;DHT22;23489;49.600;6.138;2023-09-19T02:26:35;14.70;99.90
37646;DHT22;23489;49.600;6.138;2023-09-19T02:29:02;14.70;99.90
37646;DHT22;23489;49.600;6.138;2023-09-19T02:31:30;14.70;99.90
37646;DHT22;23489;49.600;6.138;2023-09-19T02:33:56;14.70;99.90
37646;DHT22;23489;49.600;6.138;2023-09-19T02:36:22;14.70;99.90
37646;DHT22;23489;49.600;6.138;2023-09-19T02:38:49;14.60;99.90
37646;DHT22;23489;49.600;6.138;2023-09-19T02:41:14;14.70;99.90
37646;DHT22;23489;49.600;6.138;2023-09-19T02:43:40;14.70;99.90
37646;DHT22;23489;49.600;6.138;2023-09-19T02:46:05;14.60;99.90
37646;DHT22;23489;49.600;6.138;2023-09-19T02:48:31;14.60;99.90
37646;DHT22;23489;49.600;6.138;2023-09-19T02:50:58;14.60;99.90
37646;DHT22;23489;49.600;6.138;2023-09-19T02:53:24;14.60;99.90
37646;DHT22;23489;49.600;6.138;2023-09-19T02:55:49;14.60;99.90
37646;DHT22;23489;49.600;6.138;2023-09-19T02:58:15;14.60;99.90
37646;DHT22;23489;49.600;6.138;2023-09-19T03:00:41;14.50;99.90
37646;DHT22;23489;49.600;6.138;2023-09-19T03:03:13;14.50;99.90
37646;DHT22;23489;49.600;6.138;2023-09-19T03:05:38;14.50;99.90
37646;DHT22;23489;49.600;6.138;2023-09-19T03:08:04;14.50;99.90
37646;DHT22;23489;49.600;6.138;2023-09-19T03:10:30;14.50;99.90
37646;DHT22;23489;49.600;6.138;2023-09-19T03:12:57;14.50;99.90
37646;DHT22;23489;49.600;6.138;2023-09-19T03:15:25;14.50;99.90
37646;DHT22;23489;49.600;6.138;2023-09-19T03:17:52;14.50;99.90
37646;DHT22;23489;49.600;6.138;2023-09-19T03:20:20;14.50;99.90
37646;DHT22;23489;49.600;6.138;2023-09-19T03:22:47;14.40;99.90
37646;DHT22;23489;49.600;6.138;2023-09-19T03:25:13;14.30;99.90
37646;DHT22;23489;49.600;6.138;2023-09-19T03:27:41;14.30;99.90
37646;DHT22;23489;49.600;6.138;2023-09-19T03:30:07;14.30;99.90
37646;DHT22;23489;49.600;6.138;2023-09-19T03:32:44;14.30;99.90
37646;DHT22;23489;49.600;6.138;2023-09-19T03:35:09;14.20;99.90
37646;DHT22;23489;49.600;6.138;2023-09-19T03:37:39;14.20;99.90
37646;DHT22;23489;49.600;6.138;2023-09-19T03:40:05;14.20;99.90
37646;DHT22;23489;49.600;6.138;2023-09-19T03:42:32;14.20;99.90
37646;DHT22;23489;49.600;6.138;2023-09-19T03:44:58;14.20;99.90
37646;DHT22;23489;49.600;6.138;2023-09-19T03:47:25;14.20;99.90
37646;DHT22;23489;49.600;6.138;2023-09-19T03:49:53;14.30;99.90
37646;DHT22;23489;49.600;6.138;2023-09-19T03:52:18;14.30;99.90
37646;DHT22;23489;49.600;6.138;2023-09-19T03:54:44;14.40;99.90
37646;DHT22;23489;49.600;6.138;2023-09-19T03:57:10;14.40;99.90
37646;DHT22;23489;49.600;6.138;2023-09-19T03:59:38;14.50;99.90
37646;DHT22;23489;49.600;6.138;2023-09-19T04:02:03;14.40;99.90
37646;DHT22;23489;49.600;6.138;2023-09-19T04:04:30;14.40;99.90
37646;DHT22;23489;49.600;6.138;2023-09-19T04:06:55;14.40;99.90
37646;DHT22;23489;49.600;6.138;2023-09-19T04:09:21;14.40;99.90
37646;DHT22;23489;49.600;6.138;2023-09-19T04:11:47;14.30;99.90
37646;DHT22;23489;49.600;6.138;2023-09-19T04:14:12;14.30;99.90
37646;DHT22;23489;49.600;6.138;2023-09-19T04:16:38;14.20;99.90
37646;DHT22;23489;49.600;6.138;2023-09-19T04:19:04;14.20;99.90
37646;DHT22;23489;49.600;6.138;2023-09-19T04:21:30;14.20;99.90
37646;DHT22;23489;49.600;6.138;2023-09-19T04:23:56;14.10;99.90
37646;DHT22;23489;49.600;6.138;2023-09-19T04:26:21;14.10;99.90
37646;DHT22;23489;49.600;6.138;2023-09-19T04:28:47;14.10;99.90
37646;DHT22;23489;49.600;6.138;2023-09-19T04:31:13;14.00;99.90
37646;DHT22;23489;49.600;6.138;2023-09-19T04:33:39;14.00;99.90
37646;DHT22;23489;49.600;6.138;2023-09-19T04:36:04;14.00;99.90
37646;DHT22;23489;49.600;6.138;2023-09-19T04:38:33;14.00;99.90
37646;DHT22;23489;49.600;6.138;2023-09-19T04:40:58;14.00;99.90
37646;DHT22;23489;49.600;6.138;2023-09-19T04:43:24;14.00;99.90
37646;DHT22;23489;49.600;6.138;2023-09-19T04:45:50;14.00;99.90
37646;DHT22;23489;49.600;6.138;2023-09-19T04:48:16;14.00;99.90
37646;DHT22;23489;49.600;6.138;2023-09-19T04:50:41;14.00;99.90
37646;DHT22;23489;49.600;6.138;2023-09-19T04:53:07;13.90;99.90
37646;DHT22;23489;49.600;6.138;2023-09-19T04:55:32;13.90;99.90
37646;DHT22;23489;49.600;6.138;2023-09-19T04:57:58;13.90;99.90
37646;DHT22;23489;49.600;6.138;2023-09-19T05:00:23;13.90;99.90
37646;DHT22;23489;49.600;6.138;2023-09-19T05:02:50;13.90;99.90
37646;DHT22;23489;49.600;6.138;2023-09-19T05:05:16;13.80;99.90
37646;DHT22;23489;49.600;6.138;2023-09-19T05:07:45;13.80;99.90
37646;DHT22;23489;49.600;6.138;2023-09-19T05:10:11;13.80;99.90
37646;DHT22;23489;49.600;6.138;2023-09-19T05:12:37;13.80;99.90
37646;DHT22;23489;49.600;6.138;2023-09-19T05:15:03;13.70;99.90
37646;DHT22;23489;49.600;6.138;2023-09-19T05:17:29;13.70;99.90
37646;DHT22;23489;49.600;6.138;2023-09-19T05:19:54;13.70;99.90
37646;DHT22;23489;49.600;6.138;2023-09-19T05:22:19;13.70;99.90
37646;DHT22;23489;49.600;6.138;2023-09-19T05:24:45;13.70;99.90
37646;DHT22;23489;49.600;6.138;2023-09-19T05:27:14;13.70;99.90
37646;DHT22;23489;49.600;6.138;2023-09-19T05:29:45;13.70;99.90
37646;DHT22;23489;49.600;6.138;2023-09-19T05:32:10;13.70;99.90
37646;DHT22;23489;49.600;6.138;2023-09-19T05:34:36;13.80;99.90
37646;DHT22;23489;49.600;6.138;2023-09-19T05:37:03;13.80;99.90
37646;DHT22;23489;49.600;6.138;2023-09-19T05:39:29;13.80;99.90
37646;DHT22;23489;49.600;6.138;2023-09-19T05:41:54;13.80;99.90
37646;DHT22;23489;49.600;6.138;2023-09-19T05:44:22;13.80;99.90
37646;DHT22;23489;49.600;6.138;2023-09-19T05:46:47;13.80;99.90
37646;DHT22;23489;49.600;6.138;2023-09-19T05:49:13;13.90;99.90
37646;DHT22;23489;49.600;6.138;2023-09-19T05:51:39;13.90;99.90
37646;DHT22;23489;49.600;6.138;2023-09-19T05:54:05;13.90;99.90
37646;DHT22;23489;49.600;6.138;2023-09-19T05:56:30;13.90;99.90
37646;DHT22;23489;49.600;6.138;2023-09-19T05:58:56;13.80;99.90
37646;DHT22;23489;49.600;6.138;2023-09-19T06:01:22;13.90;99.90
37646;DHT22;23489;49.600;6.138;2023-09-19T06:03:47;13.90;99.90
37646;DHT22;23489;49.600;6.138;2023-09-19T06:06:13;14.00;99.90
37646;DHT22;23489;49.600;6.138;2023-09-19T06:08:38;14.00;99.90
37646;DHT22;23489;49.600;6.138;2023-09-19T06:11:04;14.00;99.90
37646;DHT22;23489;49.600;6.138;2023-09-19T06:13:34;14.00;99.90
37646;DHT22;23489;49.600;6.138;2023-09-19T06:16:00;14.00;99.90
37646;DHT22;23489;49.600;6.138;2023-09-19T06:18:33;14.10;99.90
37646;DHT22;23489;49.600;6.138;2023-09-19T06:21:02;14.10;99.90
37646;DHT22;23489;49.600;6.138;2023-09-19T06:23:33;14.10;99.90
37646;DHT22;23489;49.600;6.138;2023-09-19T06:25:59;14.00;99.90
37646;DHT22;23489;49.600;6.138;2023-09-19T06:28:25;14.10;99.90
37646;DHT22;23489;49.600;6.138;2023-09-19T06:30:53;14.20;99.90
37646;DHT22;23489;49.600;6.138;2023-09-19T06:33:19;14.20;99.90
37646;DHT22;23489;49.600;6.138;2023-09-19T06:35:46;14.30;99.90
37646;DHT22;23489;49.600;6.138;2023-09-19T06:38:13;14.40;99.90
37646;DHT22;23489;49.600;6.138;2023-09-19T06:40:40;14.30;99.90
37646;DHT22;23489;49.600;6.138;2023-09-19T06:43:09;14.40;99.90
37646;DHT22;23489;49.600;6.138;2023-09-19T06:45:35;14.20;99.90
37646;DHT22;23489;49.600;6.138;2023-09-19T06:48:00;14.30;99.90
37646;DHT22;23489;49.600;6.138;2023-09-19T06:50:28;14.40;99.90
37646;DHT22;23489;49.600;6.138;2023-09-19T06:52:56;14.50;99.90
37646;DHT22;23489;49.600;6.138;2023-09-19T06:55:24;14.60;99.90
37646;DHT22;23489;49.600;6.138;2023-09-19T06:57:53;14.50;99.90
37646;DHT22;23489;49.600;6.138;2023-09-19T07:00:22;14.70;99.90
37646;DHT22;23489;49.600;6.138;2023-09-19T07:02:55;14.70;99.90
37646;DHT22;23489;49.600;6.138;2023-09-19T07:05:21;14.70;99.90
37646;DHT22;23489;49.600;6.138;2023-09-19T07:07:47;14.90;99.90
37646;DHT22;23489;49.600;6.138;2023-09-19T07:10:12;15.00;99.90
37646;DHT22;23489;49.600;6.138;2023-09-19T07:12:39;15.40;99.90
37646;DHT22;23489;49.600;6.138;2023-09-19T07:15:06;15.70;99.90
37646;DHT22;23489;49.600;6.138;2023-09-19T07:17:31;15.90;99.90
37646;DHT22;23489;49.600;6.138;2023-09-19T07:19:58;16.10;99.90
37646;DHT22;23489;49.600;6.138;2023-09-19T07:22:24;16.40;99.90
37646;DHT22;23489;49.600;6.138;2023-09-19T07:24:49;16.60;99.90
37646;DHT22;23489;49.600;6.138;2023-09-19T07:27:15;16.20;99.90
37646;DHT22;23489;49.600;6.138;2023-09-19T07:29:41;16.50;99.90
37646;DHT22;23489;49.600;6.138;2023-09-19T07:32:07;16.90;99.90
37646;DHT22;23489;49.600;6.138;2023-09-19T07:34:33;17.00;99.90
37646;DHT22;23489;49.600;6.138;2023-09-19T07:36:59;17.40;99.90
37646;DHT22;23489;49.600;6.138;2023-09-19T07:39:24;17.60;99.90
37646;DHT22;23489;49.600;6.138;2023-09-19T07:41:50;18.40;99.90
37646;DHT22;23489;49.600;6.138;2023-09-19T07:44:15;18.70;99.90
37646;DHT22;23489;49.600;6.138;2023-09-19T07:46:42;18.70;99.90
37646;DHT22;23489;49.600;6.138;2023-09-19T07:49:09;18.60;99.90
37646;DHT22;23489;49.600;6.138;2023-09-19T07:51:36;18.50;99.90
37646;DHT22;23489;49.600;6.138;2023-09-19T07:54:01;18.20;99.90
37646;DHT22;23489;49.600;6.138;2023-09-19T07:56:27;17.90;99.90
37646;DHT22;23489;49.600;6.138;2023-09-19T07:58:53;18.00;99.90
37646;DHT22;23489;49.600;6.138;2023-09-19T08:01:18;18.80;99.90
37646;DHT22;23489;49.600;6.138;2023-09-19T08:03:44;19.10;99.90
37646;DHT22;23489;49.600;6.138;2023-09-19T08:06:10;19.60;99.90
37646;DHT22;23489;49.600;6.138;2023-09-19T08:08:36;19.80;99.90
37646;DHT22;23489;49.600;6.138;2023-09-19T08:11:05;19.10;99.90
37646;DHT22;23489;49.600;6.138;2023-09-19T08:13:37;17.60;99.90
37646;DHT22;23489;49.600;6.138;2023-09-19T08:16:03;17.10;99.90
37646;DHT22;23489;49.600;6.138;2023-09-19T08:18:29;16.90;99.90
37646;DHT22;23489;49.600;6.138;2023-09-19T08:20:55;16.60;99.90
37646;DHT22;23489;49.600;6.138;2023-09-19T08:23:24;16.60;99.90
37646;DHT22;23489;49.600;6.138;2023-09-19T08:25:49;16.80;99.90
37646;DHT22;23489;49.600;6.138;2023-09-19T08:28:15;16.70;99.90
37646;DHT22;23489;49.600;6.138;2023-09-19T08:30:47;16.80;99.90
37646;DHT22;23489;49.600;6.138;2023-09-19T08:33:12;17.50;99.90
37646;DHT22;23489;49.600;6.138;2023-09-19T08:35:41;18.00;99.90
37646;DHT22;23489;49.600;6.138;2023-09-19T08:38:07;18.30;99.90
37646;DHT22;23489;49.600;6.138;2023-09-19T08:40:32;18.00;99.90
37646;DHT22;23489;49.600;6.138;2023-09-19T08:43:03;17.70;99.90
37646;DHT22;23489;49.600;6.138;2023-09-19T08:45:28;17.70;99.90
37646;DHT22;23489;49.600;6.138;2023-09-19T08:50:31;18.70;99.90
37646;DHT22;23489;49.600;6.138;2023-09-19T08:53:00;19.20;99.90
37646;DHT22;23489;49.600;6.138;2023-09-19T08:55:27;19.40;99.90
37646;DHT22;23489;49.600;6.138;2023-09-19T08:57:52;19.30;99.90
37646;DHT22;23489;49.600;6.138;2023-09-19T09:00:24;19.30;99.90
37646;DHT22;23489;49.600;6.138;2023-09-19T09:02:52;19.30;99.90
37646;DHT22;23489;49.600;6.138;2023-09-19T09:05:19;19.50;99.90
37646;DHT22;23489;49.600;6.138;2023-09-19T09:07:49;19.50;99.90
37646;DHT22;23489;49.600;6.138;2023-09-19T09:10:17;19.70;99.90
37646;DHT22;23489;49.600;6.138;2023-09-19T09:12:43;19.90;99.90
37646;DHT22;23489;49.600;6.138;2023-09-19T09:15:09;20.40;99.90
37646;DHT22;23489;49.600;6.138;2023-09-19T09:17:37;21.10;99.90
37646;DHT22;23489;49.600;6.138;2023-09-19T09:20:02;21.90;99.90
37646;DHT22;23489;49.600;6.138;2023-09-19T09:22:30;20.80;99.90
37646;DHT22;23489;49.600;6.138;2023-09-19T09:24:57;21.60;99.90
37646;DHT22;23489;49.600;6.138;2023-09-19T09:27:31;22.30;99.90
37646;DHT22;23489;49.600;6.138;2023-09-19T09:29:58;22.60;99.90
37646;DHT22;23489;49.600;6.138;2023-09-19T09:34:50;22.10;99.90
37646;DHT22;23489;49.600;6.138;2023-09-19T09:37:16;21.80;99.90
37646;DHT22;23489;49.600;6.138;2023-09-19T09:39:51;22.00;99.90
37646;DHT22;23489;49.600;6.138;2023-09-19T09:42:33;22.90;99.90
37646;DHT22;23489;49.600;6.138;2023-09-19T09:47:48;24.50;99.40
37646;DHT22;23489;49.600;6.138;2023-09-19T09:50:27;24.80;98.40
37646;DHT22;23489;49.600;6.138;2023-09-19T09:52:55;25.20;97.40
37646;DHT22;23489;49.600;6.138;2023-09-19T09:55:27;25.70;97.30
37646;DHT22;23489;49.600;6.138;2023-09-19T10:00:51;27.20;93.00
37646;DHT22;23489;49.600;6.138;2023-09-19T10:03:21;25.90;93.90
37646;DHT22;23489;49.600;6.138;2023-09-19T10:05:52;25.70;93.50
37646;DHT22;23489;49.600;6.138;2023-09-19T10:08:20;25.40;93.40
37646;DHT22;23489;49.600;6.138;2023-09-19T10:10:46;25.20;93.50
37646;DHT22;23489;49.600;6.138;2023-09-19T10:13:29;25.20;93.50
37646;DHT22;23489;49.600;6.138;2023-09-19T10:15:56;25.70;92.50
37646;DHT22;23489;49.600;6.138;2023-09-19T10:18:24;26.10;92.40
37646;DHT22;23489;49.600;6.138;2023-09-19T10:20:51;26.70;91.50
37646;DHT22;23489;49.600;6.138;2023-09-19T10:23:17;27.10;90.70
37646;DHT22;23489;49.600;6.138;2023-09-19T10:25:47;27.10;90.00
37646;DHT22;23489;49.600;6.138;2023-09-19T10:28:14;26.30;90.30
37646;DHT22;23489;49.600;6.138;2023-09-19T10:30:43;25.70;91.10
37646;DHT22;23489;49.600;6.138;2023-09-19T10:33:11;26.40;90.50
37646;DHT22;23489;49.600;6.138;2023-09-19T10:35:38;26.50;88.90
37646;DHT22;23489;49.600;6.138;2023-09-19T10:38:06;25.30;90.40
37646;DHT22;23489;49.600;6.138;2023-09-19T10:40:32;24.80;90.90
37646;DHT22;23489;49.600;6.138;2023-09-19T10:43:07;25.10;91.10
37646;DHT22;23489;49.600;6.138;2023-09-19T10:45:36;25.20;90.30
37646;DHT22;23489;49.600;6.138;2023-09-19T10:48:05;24.80;90.90
37646;DHT22;23489;49.600;6.138;2023-09-19T10:50:33;24.60;91.50
37646;DHT22;23489;49.600;6.138;2023-09-19T10:53:02;23.50;92.50
37646;DHT22;23489;49.600;6.138;2023-09-19T10:55:30;23.10;93.00
37646;DHT22;23489;49.600;6.138;2023-09-19T10:57:56;22.60;93.10
37646;DHT22;23489;49.600;6.138;2023-09-19T11:00:55;22.40;93.80
37646;DHT22;23489;49.600;6.138;2023-09-19T11:03:21;22.20;94.80
37646;DHT22;23489;49.600;6.138;2023-09-19T11:06:01;22.20;94.20
37646;DHT22;23489;49.600;6.138;2023-09-19T11:08:30;22.10;95.10
37646;DHT22;23489;49.600;6.138;2023-09-19T11:10:57;21.90;94.40
37646;DHT22;23489;49.600;6.138;2023-09-19T11:13:28;21.60;94.80
37646;DHT22;23489;49.600;6.138;2023-09-19T11:26:44;21.50;95.40
37646;DHT22;23489;49.600;6.138;2023-09-19T11:31:51;21.40;95.30
37646;DHT22;23489;49.600;6.138;2023-09-19T11:37:01;21.40;95.40
37646;DHT22;23489;49.600;6.138;2023-09-19T11:39:29;21.20;95.90
37646;DHT22;23489;49.600;6.138;2023-09-19T11:41:55;21.10;96.40
37646;DHT22;23489;49.600;6.138;2023-09-19T11:49:19;20.80;97.20
37646;DHT22;23489;49.600;6.138;2023-09-19T11:51:52;20.90;97.20
37646;DHT22;23489;49.600;6.138;2023-09-19T11:54:17;21.00;97.20
37646;DHT22;23489;49.600;6.138;2023-09-19T11:56:53;20.90;96.90
37646;DHT22;23489;49.600;6.138;2023-09-19T11:59:23;21.00;95.90
37646;DHT22;23489;49.600;6.138;2023-09-19T12:01:52;20.90;95.80
37646;DHT22;23489;49.600;6.138;2023-09-19T12:04:33;20.90;95.90
37646;DHT22;23489;49.600;6.138;2023-09-19T12:07:12;20.90;96.10
37646;DHT22;23489;49.600;6.138;2023-09-19T12:09:44;20.90;95.90
37646;DHT22;23489;49.600;6.138;2023-09-19T12:12:19;20.80;96.00
37646;DHT22;23489;49.600;6.138;2023-09-19T12:14:48;20.70;96.30
37646;DHT22;23489;49.600;6.138;2023-09-19T12:17:14;20.70;96.70
37646;DHT22;23489;49.600;6.138;2023-09-19T12:19:49;20.70;97.10
37646;DHT22;23489;49.600;6.138;2023-09-19T12:22:15;20.80;97.00
37646;DHT22;23489;49.600;6.138;2023-09-19T12:24:41;21.00;96.90
37646;DHT22;23489;49.600;6.138;2023-09-19T12:27:09;21.00;96.60
37646;DHT22;23489;49.600;6.138;2023-09-19T12:29:43;21.10;96.90
37646;DHT22;23489;49.600;6.138;2023-09-19T12:32:09;21.20;96.60
37646;DHT22;23489;49.600;6.138;2023-09-19T12:34:35;21.20;96.30
37646;DHT22;23489;49.600;6.138;2023-09-19T12:37:11;21.30;96.10
37646;DHT22;23489;49.600;6.138;2023-09-19T12:39:40;21.20;96.50
37646;DHT22;23489;49.600;6.138;2023-09-19T12:42:09;20.90;96.70
37646;DHT22;23489;49.600;6.138;2023-09-19T12:44:39;20.90;96.90
37646;DHT22;23489;49.600;6.138;2023-09-19T12:47:10;20.80;97.50
37646;DHT22;23489;49.600;6.138;2023-09-19T12:49:36;20.50;97.90
37646;DHT22;23489;49.600;6.138;2023-09-19T12:52:01;20.60;98.00
37646;DHT22;23489;49.600;6.138;2023-09-19T12:54:39;20.80;98.30
37646;DHT22;23489;49.600;6.138;2023-09-19T12:57:05;20.70;98.00
37646;DHT22;23489;49.600;6.138;2023-09-19T12:59:30;20.70;98.30
37646;DHT22;23489;49.600;6.138;2023-09-19T13:02:04;21.00;98.10
37646;DHT22;23489;49.600;6.138;2023-09-19T13:04:32;21.20;98.20
37646;DHT22;23489;49.600;6.138;2023-09-19T13:06:59;21.40;97.50
37646;DHT22;23489;49.600;6.138;2023-09-19T13:09:26;21.40;97.50
37646;DHT22;23489;49.600;6.138;2023-09-19T13:12:04;21.30;97.50
37646;DHT22;23489;49.600;6.138;2023-09-19T13:14:30;21.20;97.80
37646;DHT22;23489;49.600;6.138;2023-09-19T13:17:06;21.30;98.00
37646;DHT22;23489;49.600;6.138;2023-09-19T13:24:51;21.50;97.50
37646;DHT22;23489;49.600;6.138;2023-09-19T13:27:17;21.40;97.60
37646;DHT22;23489;49.600;6.138;2023-09-19T13:29:42;21.40;97.70
37646;DHT22;23489;49.600;6.138;2023-09-19T13:32:08;21.20;97.70
37646;DHT22;23489;49.600;6.138;2023-09-19T13:34:36;21.20;97.80
37646;DHT22;23489;49.600;6.138;2023-09-19T13:37:03;21.10;98.00
37646;DHT22;23489;49.600;6.138;2023-09-19T13:39:30;21.00;98.40
37646;DHT22;23489;49.600;6.138;2023-09-19T13:41:55;21.00;98.10
37646;DHT22;23489;49.600;6.138;2023-09-19T13:44:21;20.90;98.20
37646;DHT22;23489;49.600;6.138;2023-09-19T13:46:46;20.90;98.20
37646;DHT22;23489;49.600;6.138;2023-09-19T13:49:12;20.70;98.40
37646;DHT22;23489;49.600;6.138;2023-09-19T13:51:37;20.70;98.70
37646;DHT22;23489;49.600;6.138;2023-09-19T13:54:03;20.80;98.90
37646;DHT22;23489;49.600;6.138;2023-09-19T13:56:28;20.90;98.80
37646;DHT22;23489;49.600;6.138;2023-09-19T13:58:55;21.00;98.20
37646;DHT22;23489;49.600;6.138;2023-09-19T14:01:21;21.00;97.70
37646;DHT22;23489;49.600;6.138;2023-09-19T14:03:46;21.10;97.90
37646;DHT22;23489;49.600;6.138;2023-09-19T14:06:16;21.10;97.90
37646;DHT22;23489;49.600;6.138;2023-09-19T14:08:42;21.20;97.90
37646;DHT22;23489;49.600;6.138;2023-09-19T14:11:08;21.10;97.90
37646;DHT22;23489;49.600;6.138;2023-09-19T14:13:33;21.30;98.10
37646;DHT22;23489;49.600;6.138;2023-09-19T14:16:06;21.20;98.00
37646;DHT22;23489;49.600;6.138;2023-09-19T14:18:33;21.20;98.20
37646;DHT22;23489;49.600;6.138;2023-09-19T14:21:01;21.30;98.10
37646;DHT22;23489;49.600;6.138;2023-09-19T14:23:28;21.30;98.10
37646;DHT22;23489;49.600;6.138;2023-09-19T14:25:54;21.30;98.20
37646;DHT22;23489;49.600;6.138;2023-09-19T14:28:19;21.30;98.30
37646;DHT22;23489;49.600;6.138;2023-09-19T14:30:45;21.30;98.30
37646;DHT22;23489;49.600;6.138;2023-09-19T14:33:11;21.20;98.40
37646;DHT22;23489;49.600;6.138;2023-09-19T14:35:37;21.10;99.20
37646;DHT22;23489;49.600;6.138;2023-09-19T14:38:03;21.10;99.10
37646;DHT22;23489;49.600;6.138;2023-09-19T14:40:29;21.10;99.40
37646;DHT22;23489;49.600;6.138;2023-09-19T14:42:54;21.10;99.30
37646;DHT22;23489;49.600;6.138;2023-09-19T14:45:20;21.10;99.40
37646;DHT22;23489;49.600;6.138;2023-09-19T14:47:46;21.10;99.50
37646;DHT22;23489;49.600;6.138;2023-09-19T14:50:11;21.10;99.70
37646;DHT22;23489;49.600;6.138;2023-09-19T14:52:38;21.10;99.70
37646;DHT22;23489;49.600;6.138;2023-09-19T14:55:05;21.10;99.80
37646;DHT22;23489;49.600;6.138;2023-09-19T14:57:31;21.10;99.80
37646;DHT22;23489;49.600;6.138;2023-09-19T14:59:57;20.80;99.80
37646;DHT22;23489;49.600;6.138;2023-09-19T15:02:23;20.80;99.90
37646;DHT22;23489;49.600;6.138;2023-09-19T15:04:48;20.80;99.90
37646;DHT22;23489;49.600;6.138;2023-09-19T15:07:16;20.90;99.90
37646;DHT22;23489;49.600;6.138;2023-09-19T15:09:43;20.80;99.90
37646;DHT22;23489;49.600;6.138;2023-09-19T15:12:09;20.70;99.90
37646;DHT22;23489;49.600;6.138;2023-09-19T15:14:35;20.70;99.90
37646;DHT22;23489;49.600;6.138;2023-09-19T15:17:01;20.70;99.90
37646;DHT22;23489;49.600;6.138;2023-09-19T15:19:30;20.70;99.90
37646;DHT22;23489;49.600;6.138;2023-09-19T15:21:55;20.80;99.90
37646;DHT22;23489;49.600;6.138;2023-09-19T15:24:23;20.80;99.90
37646;DHT22;23489;49.600;6.138;2023-09-19T15:26:50;20.90;99.90
37646;DHT22;23489;49.600;6.138;2023-09-19T15:29:16;20.80;99.90
37646;DHT22;23489;49.600;6.138;2023-09-19T15:31:41;20.70;99.90
37646;DHT22;23489;49.600;6.138;2023-09-19T15:34:07;20.70;99.90
37646;DHT22;23489;49.600;6.138;2023-09-19T15:36:33;20.60;99.90
37646;DHT22;23489;49.600;6.138;2023-09-19T15:43:53;20.60;99.90
37646;DHT22;23489;49.600;6.138;2023-09-19T15:46:19;20.50;99.90
37646;DHT22;23489;49.600;6.138;2023-09-19T15:48:45;20.50;99.90
37646;DHT22;23489;49.600;6.138;2023-09-19T15:51:11;20.40;99.90
37646;DHT22;23489;49.600;6.138;2023-09-19T15:53:46;20.40;99.90
37646;DHT22;23489;49.600;6.138;2023-09-19T15:56:15;20.30;99.90
37646;DHT22;23489;49.600;6.138;2023-09-19T15:58:45;20.20;99.90
37646;DHT22;23489;49.600;6.138;2023-09-19T16:01:10;20.20;99.90
37646;DHT22;23489;49.600;6.138;2023-09-19T16:03:37;20.10;99.90
37646;DHT22;23489;49.600;6.138;2023-09-19T16:06:13;20.10;99.90
37646;DHT22;23489;49.600;6.138;2023-09-19T16:08:42;20.00;99.90
37646;DHT22;23489;49.600;6.138;2023-09-19T16:11:08;20.00;99.90
37646;DHT22;23489;49.600;6.138;2023-09-19T16:13:34;19.90;99.90
37646;DHT22;23489;49.600;6.138;2023-09-19T16:16:00;19.80;99.90
37646;DHT22;23489;49.600;6.138;2023-09-19T16:18:25;19.80;99.90
37646;DHT22;23489;49.600;6.138;2023-09-19T16:20:51;19.70;99.90
37646;DHT22;23489;49.600;6.138;2023-09-19T16:23:17;19.70;99.90
37646;DHT22;23489;49.600;6.138;2023-09-19T16:25:43;19.70;99.90
37646;DHT22;23489;49.600;6.138;2023-09-19T16:28:10;19.60;99.90
37646;DHT22;23489;49.600;6.138;2023-09-19T16:30:36;19.60;99.90
37646;DHT22;23489;49.600;6.138;2023-09-19T16:33:04;19.60;99.90